Home   Weather   USA   San Antonio   Past weeks
Flag for USA

Past Weather in San Antonio, Texas, USA — February 2021

Currently: 63 °F. Low clouds. (Weather station: San Antonio International Airport, USA). See more current weather

February 2021 Weather in San Antonio — Graph

°F

High & Low Weather Summary for February 2021

 TemperatureHumidityPressure
High79 °F (Feb 4, 3:51 pm)100% (Feb 27, 6:37 am)30.56 "Hg (Feb 27, 6:37 am)
Low9 °F (Feb 15, 6:51 am)13% (Feb 6, 4:51 pm)29.70 "Hg (Feb 4, 3:51 pm)
Average49 °F72%30.05 "Hg
* Reported Feb 1 12:51 am — Feb 28 11:51 pm, San Antonio. Weather by CustomWeather, © 2022

Note: Actual official high and low records may vary slightly from our data, if they occured in-between our weather recording intervals... More about our weather records

San Antonio Weather History for February 1, 2021

Scroll right to see more
 ConditionsComfort  
Time TempWeatherWind HumidityBarometerVisibility
12:51 am
Mon, Feb 1
47 °FClear.7 mph52%30.38 "Hg10 mi
1:51 am47 °FClear.8 mph52%30.39 "Hg10 mi
2:51 am47 °FClear.8 mph52%30.39 "Hg10 mi
3:51 am47 °FClear.9 mph54%30.38 "Hg10 mi
4:51 am48 °FPassing clouds.7 mph52%30.38 "Hg10 mi
5:51 am49 °FPassing clouds.10 mph48%30.38 "Hg10 mi
6:51 am48 °FPassing clouds.15 mph50%30.39 "Hg10 mi
7:51 am49 °FPassing clouds.13 mph46%30.40 "Hg10 mi
8:51 am51 °FScattered clouds.13 mph44%30.42 "Hg10 mi
9:51 am55 °FScattered clouds.14 mph37%30.42 "Hg10 mi
10:51 am60 °FScattered clouds.12 mph27%30.43 "Hg10 mi
11:51 am62 °FScattered clouds.9 mph23%30.41 "Hg10 mi
12:51 pm63 °FPassing clouds.3 mph22%30.37 "Hg10 mi
1:51 pm66 °FSunny.7 mph20%30.33 "Hg10 mi
2:51 pm66 °FPassing clouds.3 mph19%30.29 "Hg10 mi
3:51 pm68 °FPassing clouds.6 mph17%30.28 "Hg10 mi
4:51 pm67 °FPassing clouds.6 mph18%30.27 "Hg10 mi
5:51 pm64 °FPassing clouds.6 mph20%30.27 "Hg10 mi
6:51 pm59 °FPassing clouds.5 mph27%30.28 "Hg10 mi
7:51 pm55 °FPassing clouds.3 mph31%30.29 "Hg10 mi
8:51 pm54 °FClear.No wind33%30.30 "Hg10 mi
9:51 pm50 °FClear.No wind39%30.30 "Hg10 mi
10:51 pm43 °FClear.5 mph58%30.30 "Hg10 mi
11:51 pm45 °FPassing clouds.5 mph56%30.29 "Hg10 mi
Weather by CustomWeather, © 2022

See weather overview